Time;durP1;ratioP1;P1;durP2;ratioP2;P2;SDS_P1;SDS_P2;PMS_P1;PMS_P2;Temp;Humidity;BMP_temperature;BMP_pressure;BME280_temperature;BME280_humidity;BME280_pressure;Samples;Min_cycle;Max_cycle;Signal;HPM_P1;HPM_P2
2022/05/09 00:01:39;;;;;;;9.02;2.65;;;;;;;9.29;85.88;102814.56;5022318;28;20038;-87
2022/05/09 00:04:05;;;;;;;10.68;2.67;;;;;;;9.30;86.37;102822.47;5027799;28;20079;-87
2022/05/09 00:06:30;;;;;;;6.88;2.47;;;;;;;9.27;86.42;102822.50;5034080;28;20159;-87
2022/05/09 00:08:56;;;;;;;8.80;2.42;;;;;;;9.22;86.61;102818.13;5017357;28;20447;-88
2022/05/09 00:11:21;;;;;;;9.07;2.88;;;;;;;9.17;86.82;102819.03;5017671;28;20034;-87
2022/05/09 00:13:47;;;;;;;15.55;3.25;;;;;;;9.14;86.70;102818.19;5025934;28;20440;-87
2022/05/09 00:16:12;;;;;;;10.85;3.13;;;;;;;9.08;87.36;102811.19;4997903;28;20045;-87
2022/05/09 00:18:38;;;;;;;12.40;3.15;;;;;;;9.08;87.02;102810.28;4997779;28;20049;-87
2022/05/09 00:21:04;;;;;;;10.73;2.67;;;;;;;9.08;86.63;102818.22;4999017;28;20128;-87
2022/05/09 00:23:29;;;;;;;9.10;2.85;;;;;;;9.02;87.12;102806.81;5014448;28;20120;-88
2022/05/09 00:25:55;;;;;;;9.85;3.03;;;;;;;8.99;87.49;102808.59;4997763;28;20038;-87
2022/05/09 00:28:20;;;;;;;6.40;2.58;;;;;;;8.94;87.81;102795.44;5014057;28;20018;-87
2022/05/09 00:30:46;;;;;;;12.40;3.42;;;;;;;8.91;88.04;102803.34;5015017;28;20088;-87
2022/05/09 00:33:11;;;;;;;7.47;2.92;;;;;;;8.90;88.32;102798.09;4998820;28;20482;-88
2022/05/09 00:35:37;;;;;;;10.48;3.13;;;;;;;8.93;88.14;102800.72;5014464;28;20501;-87
2022/05/09 00:38:04;;;;;;;10.15;3.15;;;;;;;8.87;88.42;102792.84;5014970;28;20060;-88
2022/05/09 00:40:29;;;;;;;9.30;3.10;;;;;;;8.84;88.86;102799.00;4988569;28;20432;-88
2022/05/09 00:42:55;;;;;;;8.13;2.90;;;;;;;8.80;88.83;102799.94;5034539;28;20029;-87
2022/05/09 00:45:23;;;;;;;14.52;3.15;;;;;;;8.77;89.13;102792.00;5009340;28;20400;-88
2022/05/09 00:47:52;;;;;;;6.43;3.13;;;;;;;8.75;89.68;102799.94;5017134;28;20410;-88
2022/05/09 00:50:23;;;;;;;8.85;2.80;;;;;;;8.73;89.47;102799.06;5021640;28;20120;-88
2022/05/09 00:52:55;;;;;;;9.43;3.00;;;;;;;8.72;89.70;102797.34;5070120;28;20047;-87
2022/05/09 00:55:26;;;;;;;;;;;;;;;8.69;89.99;102803.47;5045020;28;20020;-88
2022/05/09 00:58:05;;;;;;;9.80;2.97;;;;;;;8.67;89.96;102794.69;5059438;28;19923;-87
2022/05/09 01:00:31;;;;;;;13.60;2.95;;;;;;;8.64;90.18;102801.75;5056960;28;20543;-87
2022/05/09 01:03:04;;;;;;;7.28;2.80;;;;;;;8.60;90.58;102794.75;5039683;28;20123;-88
2022/05/09 01:05:32;;;;;;;14.50;3.15;;;;;;;8.58;90.56;102784.19;5051668;28;20021;-87
2022/05/09 01:07:59;;;;;;;10.98;3.08;;;;;;;8.53;91.02;102786.84;5054593;28;20055;-87
2022/05/09 01:10:30;;;;;;;12.50;3.38;;;;;;;8.53;90.97;102783.34;5036700;28;20087;-87
2022/05/09 01:13:01;;;;;;;11.13;3.05;;;;;;;8.52;91.23;102782.44;5066823;28;20031;-87
2022/05/09 01:15:26;;;;;;;8.90;3.35;;;;;;;8.49;91.47;102774.56;5056222;28;20070;-87
2022/05/09 01:17:52;;;;;;;6.05;2.97;;;;;;;8.48;91.41;102778.06;5056442;28;20631;-88
2022/05/09 01:20:17;;;;;;;8.55;3.33;;;;;;;8.43;91.93;102776.31;5056190;28;20024;-88
2022/05/09 01:22:43;;;;;;;12.13;3.13;;;;;;;8.39;92.10;102777.19;5022068;28;20396;-88
2022/05/09 01:25:12;;;;;;;11.57;3.05;;;;;;;8.34;92.55;102772.81;5036141;28;20404;-87
2022/05/09 01:27:40;;;;;;;10.52;3.60;;;;;;;8.32;92.53;102781.63;5052974;28;20028;-88
2022/05/09 01:30:21;;;;;;;5.97;3.13;;;;;;;8.32;93.10;102773.72;5055850;28;20034;-87
2022/05/09 01:33:09;;;;;;;14.43;3.25;;;;;;;8.32;92.81;102776.34;5059512;28;20032;-88
2022/05/09 01:35:45;;;;;;;7.28;3.05;;;;;;;8.28;92.77;102767.56;5073722;28;20042;-87
2022/05/09 01:38:17;;;;;;;14.18;3.92;;;;;;;8.24;93.24;102760.53;5054744;28;20032;-87
2022/05/09 01:40:42;;;;;;;12.77;4.18;;;;;;;8.27;93.35;102762.28;5049626;28;20021;-85
2022/05/09 01:43:08;;;;;;;11.18;3.63;;;;;;;8.28;93.41;102758.78;5002871;28;20035;-88
2022/05/09 01:45:33;;;;;;;11.05;3.40;;;;;;;8.29;93.24;102757.91;5002959;28;20040;-86
2022/05/09 01:50:42;;;;;;;9.40;3.40;;;;;;;8.19;93.68;102752.63;5028522;28;20400;-86
2022/05/09 01:53:08;;;;;;;12.90;3.85;;;;;;;8.16;94.03;102751.78;5019078;28;20024;-86
2022/05/09 01:55:33;;;;;;;12.20;3.75;;;;;;;8.14;94.30;102749.13;5038797;28;20093;-88
2022/05/09 01:57:59;;;;;;;13.90;3.78;;;;;;;8.16;94.09;102746.53;5022368;28;20031;-88
2022/05/09 02:00:24;;;;;;;9.00;3.53;;;;;;;8.11;94.39;102743.88;5038896;28;20458;-88
2022/05/09 02:02:50;;;;;;;13.20;3.65;;;;;;;8.07;94.95;102739.50;5055098;28;20474;-86
2022/05/09 02:05:16;;;;;;;13.00;3.75;;;;;;;8.02;95.29;102747.44;5055211;28;20047;-86
2022/05/09 02:07:42;;;;;;;10.82;3.40;;;;;;;7.98;95.20;102752.72;5055450;28;20029;-85
2022/05/09 02:10:08;;;;;;;11.65;3.28;;;;;;;7.97;95.42;102753.63;5040911;28;20024;-81
2022/05/09 02:12:34;;;;;;;9.73;3.25;;;;;;;7.95;95.04;102753.59;5056479;28;20037;-86
2022/05/09 02:14:59;;;;;;;11.02;3.75;;;;;;;7.91;95.62;102749.22;5022070;28;20021;-86
2022/05/09 02:17:25;;;;;;;10.00;3.67;;;;;;;7.90;95.52;102750.09;5022615;28;20086;-86
2022/05/09 02:19:51;;;;;;;10.35;3.72;;;;;;;7.87;95.58;102748.34;5055907;28;20535;-87
2022/05/09 02:22:16;;;;;;;11.70;3.67;;;;;;;7.86;95.48;102751.91;5038543;28;20042;-87
2022/05/09 02:24:42;;;;;;;8.02;3.30;;;;;;;7.87;96.09;102752.75;5026975;28;20024;-87
2022/05/09 02:27:09;;;;;;;11.07;3.95;;;;;;;7.82;95.80;102742.22;5037942;28;20439;-88
2022/05/09 02:29:37;;;;;;;10.82;4.05;;;;;;;7.79;96.14;102749.28;5035354;28;20029;-86
2022/05/09 02:32:05;;;;;;;12.95;4.22;;;;;;;7.76;96.52;102757.19;5057774;28;20028;-87
2022/05/09 02:34:30;;;;;;;10.35;3.72;;;;;;;7.73;96.53;102754.56;5018602;28;20039;-88
2022/05/09 02:36:58;;;;;;;10.68;3.67;;;;;;;7.73;96.36;102751.94;5044653;28;20024;-88
2022/05/09 02:39:23;;;;;;;10.55;3.42;;;;;;;7.71;96.65;102751.91;5038543;28;20427;-88
2022/05/09 02:41:49;;;;;;;15.23;4.38;;;;;;;7.69;96.34;102746.63;5041741;28;20037;-88
2022/05/09 02:44:15;;;;;;;11.73;4.70;;;;;;;7.67;96.15;102750.16;5018762;28;20102;-88
2022/05/09 02:46:42;;;;;;;14.93;4.25;;;;;;;7.60;96.45;102746.66;5021785;28;20021;-88
2022/05/09 02:49:09;;;;;;;11.23;3.80;;;;;;;7.60;97.13;102745.81;5057412;28;20048;-87
2022/05/09 02:51:34;;;;;;;11.82;4.55;;;;;;;7.57;96.88;102737.88;5054718;28;20071;-88
2022/05/09 02:54:00;;;;;;;10.10;3.95;;;;;;;7.55;97.45;102735.25;5038956;28;20476;-88
2022/05/09 02:56:26;;;;;;;9.13;3.92;;;;;;;7.53;97.47;102735.25;5057150;28;20033;-87
2022/05/09 02:58:54;;;;;;;10.60;4.40;;;;;;;7.54;97.63;102730.84;5055559;28;20029;-88
2022/05/09 03:01:20;;;;;;;12.50;4.05;;;;;;;7.54;97.72;102733.50;5024163;28;20024;-89
2022/05/09 03:06:31;;;;;;;9.20;4.05;;;;;;;7.49;97.42;102729.97;5057115;28;20099;-88
2022/05/09 03:08:56;;;;;;;12.63;4.35;;;;;;;7.46;97.49;102735.28;5058299;28;20028;-87
2022/05/09 03:11:22;;;;;;;13.88;5.25;;;;;;;7.48;97.47;102728.22;5058582;28;20032;-88
2022/05/09 03:13:47;;;;;;;12.20;4.55;;;;;;;7.44;97.37;102724.69;5054686;28;20123;-88
2022/05/09 03:16:13;;;;;;;11.85;4.00;;;;;;;7.42;97.94;102725.59;5022164;28;20055;-88
2022/05/09 03:18:38;;;;;;;12.10;4.47;;;;;;;7.40;97.82;102735.28;5029666;28;20052;-88
2022/05/09 03:21:04;;;;;;;14.60;4.32;;;;;;;7.34;97.68;102721.22;5058624;28;20555;-87
2022/05/09 03:23:30;;;;;;;12.82;4.15;;;;;;;7.32;98.16;102730.88;5057972;28;20029;-88
2022/05/09 03:25:56;;;;;;;11.38;4.18;;;;;;;7.27;98.25;102722.09;5076073;28;20035;-88
2022/05/09 03:28:26;;;;;;;12.20;4.40;;;;;;;7.27;98.45;102721.22;5057909;28;20024;-87
2022/05/09 03:30:54;;;;;;;13.65;4.13;;;;;;;7.25;98.59;102717.69;5038802;28;20021;-87
2022/05/09 03:33:20;;;;;;;10.95;4.03;;;;;;;7.24;98.24;102715.94;5054582;28;20025;-87
2022/05/09 03:35:46;;;;;;;11.82;4.45;;;;;;;7.20;98.55;102701.91;5054648;28;20033;-87
2022/05/09 03:38:12;;;;;;;14.45;4.25;;;;;;;7.17;98.82;102715.97;5038060;28;20431;-87
2022/05/09 03:40:38;;;;;;;12.60;4.28;;;;;;;7.17;98.98;102715.06;5070035;28;20021;-87
2022/05/09 03:43:05;;;;;;;9.50;3.88;;;;;;;7.17;98.97;102712.44;5057851;28;20033;-87
2022/05/09 03:45:31;;;;;;;8.85;4.05;;;;;;;7.13;98.58;102703.66;5033874;28;20053;-88
2022/05/09 03:47:57;;;;;;;12.15;4.03;;;;;;;7.11;98.72;102717.72;5021544;28;20106;-88
2022/05/09 03:50:23;;;;;;;10.00;3.95;;;;;;;7.07;98.84;102708.91;5011634;28;20043;-87
2022/05/09 03:52:48;;;;;;;17.85;4.97;;;;;;;7.05;98.75;102708.94;5057647;28;20052;-87
2022/05/09 03:55:14;;;;;;;11.75;3.97;;;;;;;7.03;98.79;102708.06;5055874;28;20117;-88
2022/05/09 03:57:48;;;;;;;15.00;4.53;;;;;;;7.03;99.39;102702.81;5026482;28;20086;-87
2022/05/09 04:00:15;;;;;;;13.35;4.32;;;;;;;7.01;99.56;102706.31;5037968;28;20055;-87
2022/05/09 04:02:42;;;;;;;12.07;4.18;;;;;;;6.98;99.33;102690.50;5023785;28;20121;-87
2022/05/09 04:05:14;;;;;;;13.52;4.55;;;;;;;6.98;100.00;102698.41;5021449;28;20020;-85
2022/05/09 04:07:39;;;;;;;12.68;4.15;;;;;;;7.01;99.87;102695.78;5055499;28;20492;-87
2022/05/09 04:10:05;;;;;;;11.13;4.07;;;;;;;7.01;99.77;102699.28;5020851;28;20103;-85
2022/05/09 04:12:31;;;;;;;13.73;4.80;;;;;;;7.02;99.76;102705.41;5036776;28;20110;-85
2022/05/09 04:17:40;;;;;;;13.02;4.50;;;;;;;7.04;100.00;102701.91;5040421;28;20083;-87
2022/05/09 04:20:08;;;;;;;10.75;4.00;;;;;;;7.05;99.54;102701.03;5004481;28;20029;-87
2022/05/09 04:22:34;;;;;;;12.98;4.38;;;;;;;7.04;99.22;102694.00;5034728;28;20032;-87
2022/05/09 04:25:00;;;;;;;16.17;4.40;;;;;;;7.06;99.62;102694.03;5055723;28;20467;-87
2022/05/09 04:27:28;;;;;;;11.77;4.30;;;;;;;7.08;99.42;102684.34;5057198;28;20436;-86
2022/05/09 04:29:56;;;;;;;16.85;4.30;;;;;;;7.10;99.94;102693.13;5057111;28;20021;-87
2022/05/09 04:32:24;;;;;;;13.05;4.40;;;;;;;7.11;99.75;102686.09;5049338;28;20031;-87
2022/05/09 04:34:50;;;;;;;10.02;4.45;;;;;;;7.12;99.77;102693.13;5007411;28;20126;-88
2022/05/09 04:37:15;;;;;;;11.43;3.95;;;;;;;7.15;99.68;102695.78;5056471;28;20032;-88
2022/05/09 04:39:41;;;;;;;9.18;4.50;;;;;;;7.18;99.77;102691.34;5040525;28;20033;-88
2022/05/09 04:42:07;;;;;;;17.00;5.13;;;;;;;7.20;99.37;102683.47;5074967;28;20081;-88
2022/05/09 04:44:33;;;;;;;12.77;4.10;;;;;;;7.24;99.26;102679.06;5036734;28;20035;-88
2022/05/09 04:46:58;;;;;;;14.40;4.72;;;;;;;7.27;99.33;102679.06;5055891;28;20059;-88
2022/05/09 04:49:24;;;;;;;15.52;4.78;;;;;;;7.31;99.44;102675.53;5040987;28;20412;-88
2022/05/09 04:51:49;;;;;;;13.52;4.35;;;;;;;7.32;98.96;102677.31;5040704;28;20058;-88
2022/05/09 04:54:16;;;;;;;13.68;4.22;;;;;;;7.37;99.24;102673.75;5041556;28;20108;-88
2022/05/09 04:56:41;;;;;;;15.73;4.65;;;;;;;7.44;98.91;102679.03;5031974;28;20032;-88
2022/05/09 04:59:08;;;;;;;12.40;4.13;;;;;;;7.49;99.07;102670.25;5057038;28;20039;-88
2022/05/09 05:01:33;;;;;;;14.18;4.50;;;;;;;7.55;98.07;102680.75;5057117;28;20174;-88
2022/05/09 05:04:00;;;;;;;12.85;4.47;;;;;;;7.65;98.48;102683.38;5030152;28;20498;-87
2022/05/09 05:06:25;;;;;;;14.98;4.30;;;;;;;7.76;98.02;102678.06;5036725;28;20033;-88
2022/05/09 05:08:51;;;;;;;11.07;4.32;;;;;;;7.85;97.24;102681.56;5036560;28;20052;-88
2022/05/09 05:11:16;;;;;;;17.63;4.93;;;;;;;7.91;96.75;102679.78;5018998;28;20133;-88
2022/05/09 05:13:42;;;;;;;12.77;4.18;;;;;;;7.96;96.14;102686.78;5038501;28;20021;-87
2022/05/09 05:16:07;;;;;;;12.25;4.32;;;;;;;8.02;96.14;102678.84;5039751;28;20063;-88
2022/05/09 05:18:34;;;;;;;10.10;4.03;;;;;;;8.10;95.64;102675.28;5038936;28;20055;-88
2022/05/09 05:21:07;;;;;;;14.52;4.28;;;;;;;8.24;95.40;102667.31;5039686;28;20021;-88
2022/05/09 05:23:32;;;;;;;13.50;4.45;;;;;;;8.33;94.64;102672.53;5056002;28;20062;-88
2022/05/09 05:26:00;;;;;;;14.25;4.85;;;;;;;8.37;94.25;102669.84;5019929;28;20032;-88
2022/05/09 05:28:26;;;;;;;9.65;4.20;;;;;;;8.36;93.58;102670.75;5052022;28;20395;-88
2022/05/09 05:30:53;;;;;;;12.07;4.70;;;;;;;8.37;93.96;102666.34;5038582;28;20025;-88
2022/05/09 05:33:19;;;;;;;15.10;4.53;;;;;;;8.41;93.78;102661.91;5056205;28;20086;-88
2022/05/09 05:35:44;;;;;;;15.85;4.47;;;;;;;8.43;94.25;102666.31;5039244;28;20036;-89
2022/05/09 05:38:10;;;;;;;17.17;4.82;;;;;;;8.46;93.47;102663.66;5027995;28;20439;-88
2022/05/09 05:40:35;;;;;;;15.02;4.70;;;;;;;8.49;93.73;102673.31;5003156;28;20105;-88
2022/05/09 05:43:02;;;;;;;10.50;4.15;;;;;;;8.51;93.64;102671.56;5036027;28;20029;-88
2022/05/09 05:45:28;;;;;;;18.13;6.20;;;;;;;8.61;94.32;102673.25;5039148;28;20473;-88
2022/05/09 05:47:53;;;;;;;12.68;4.75;;;;;;;8.75;93.98;102672.28;5055039;28;20116;-88
2022/05/09 05:50:38;;;;;;;10.85;4.57;;;;;;;8.83;92.66;102675.72;5046997;28;20507;-89
2022/05/09 05:53:04;;;;;;;10.02;4.57;;;;;;;8.93;92.43;102664.19;5027929;28;20061;-87
2022/05/09 05:55:29;;;;;;;18.48;5.43;;;;;;;8.96;92.43;102665.94;5022408;28;20067;-87
2022/05/09 05:57:55;;;;;;;13.50;4.85;;;;;;;9.06;91.80;102672.88;5035062;28;20116;-86
2022/05/09 06:00:22;;;;;;;15.40;5.25;;;;;;;9.14;91.70;102678.09;5018758;28;20060;-87
2022/05/09 06:02:49;;;;;;;11.38;5.15;;;;;;;9.28;90.67;102677.97;5035572;28;20124;-87
2022/05/09 06:05:16;;;;;;;16.30;4.63;;;;;;;9.34;90.60;102683.19;5039942;28;20053;-87
2022/05/09 06:08:00;;;;;;;13.90;4.85;;;;;;;9.41;90.45;102678.72;5019113;28;20036;-87
2022/05/09 06:10:26;;;;;;;14.43;4.90;;;;;;;9.51;90.22;102678.63;5043201;28;20020;-87
2022/05/09 06:12:53;;;;;;;11.52;4.70;;;;;;;9.67;89.38;102676.66;5038313;28;20123;-88
2022/05/09 06:15:33;;;;;;;12.65;4.50;;;;;;;9.76;88.17;102675.69;5067484;28;20026;-88
2022/05/09 06:18:01;;;;;;;12.57;4.97;;;;;;;9.88;87.76;102677.31;5060904;28;20052;-88
2022/05/09 06:20:31;;;;;;;12.70;4.70;;;;;;;10.00;86.94;102685.09;5092951;28;20026;-88
2022/05/09 06:22:58;;;;;;;12.05;4.82;;;;;;;10.09;85.56;102681.47;5074914;28;20026;-88
2022/05/09 06:25:25;;;;;;;12.07;4.32;;;;;;;10.19;83.17;102690.13;5042332;28;20031;-88
2022/05/09 06:27:51;;;;;;;12.18;4.40;;;;;;;10.33;82.66;102682.00;5058499;28;20048;-87
2022/05/09 06:30:19;;;;;;;11.48;4.20;;;;;;;10.41;82.33;102685.47;5074611;28;20515;-86
2022/05/09 06:32:45;;;;;;;10.13;4.03;;;;;;;10.49;81.68;102688.00;5053153;28;20079;-88
2022/05/09 06:35:15;;;;;;;14.77;4.70;;;;;;;10.61;81.41;102679.88;5054949;28;20514;-85
2022/05/09 06:37:42;;;;;;;11.63;4.00;;;;;;;10.65;80.50;102678.94;5055265;28;20024;-86
2022/05/09 06:40:10;;;;;;;13.07;4.20;;;;;;;10.70;80.25;102681.47;5039009;28;20503;-88
2022/05/09 06:42:36;;;;;;;14.52;5.15;;;;;;;10.78;80.25;102687.56;5072448;28;20025;-88
2022/05/09 06:45:02;;;;;;;11.48;4.60;;;;;;;10.87;80.44;102680.34;5031066;28;20048;-88
2022/05/09 06:47:27;;;;;;;17.67;4.60;;;;;;;10.93;80.28;102683.78;5051045;28;20057;-87
2022/05/09 06:49:53;;;;;;;14.43;5.05;;;;;;;10.95;78.45;102687.25;5034837;28;20068;-88
2022/05/09 06:52:19;;;;;;;15.23;5.25;;;;;;;11.03;79.08;102687.13;5034759;28;20020;-88
2022/05/09 06:54:45;;;;;;;13.82;4.60;;;;;;;11.14;79.46;102679.00;5006940;28;20555;-88
2022/05/09 06:57:10;;;;;;;14.93;5.50;;;;;;;11.27;78.43;102680.53;5049103;28;20056;-88
2022/05/09 06:59:36;;;;;;;12.40;4.85;;;;;;;11.34;78.25;102677.75;5050986;28;20100;-88
2022/05/09 07:02:02;;;;;;;15.40;5.00;;;;;;;11.41;78.16;102674.97;5047587;28;20033;-88
2022/05/09 07:04:28;;;;;;;20.20;5.25;;;;;;;11.49;77.34;102672.16;5034956;28;20098;-89
2022/05/09 07:06:54;;;;;;;15.25;4.85;;;;;;;11.51;75.24;102672.13;5053228;28;20024;-88
2022/05/09 07:09:19;;;;;;;11.48;4.68;;;;;;;11.57;75.19;102674.66;5017960;28;20036;-88
2022/05/09 07:12:03;;;;;;;16.52;5.70;;;;;;;11.67;74.73;102678.88;5018605;28;20037;-89
2022/05/09 07:14:29;;;;;;;14.75;5.30;;;;;;;11.75;74.80;102682.28;5035208;28;20025;-88
2022/05/09 07:16:54;;;;;;;11.63;4.82;;;;;;;11.83;75.07;102670.59;5034883;28;20090;-88
2022/05/09 07:19:20;;;;;;;16.63;4.53;;;;;;;11.94;75.36;102679.22;5052683;28;20021;-88
2022/05/09 07:21:45;;;;;;;14.43;5.57;;;;;;;12.05;75.18;102679.06;5043256;28;20133;-89
2022/05/09 07:24:11;;;;;;;17.33;5.47;;;;;;;12.12;74.92;102678.00;5052718;28;20024;-88
2022/05/09 07:26:36;;;;;;;15.13;5.18;;;;;;;12.20;74.78;102672.50;5040176;28;20036;-87
2022/05/09 07:29:05;;;;;;;17.25;5.05;;;;;;;12.28;74.18;102666.13;5081747;28;20006;-88
2022/05/09 07:31:31;;;;;;;17.98;5.68;;;;;;;12.40;73.73;102670.25;5082054;28;20043;-88
2022/05/09 07:33:57;;;;;;;16.10;5.63;;;;;;;12.50;72.96;102670.06;5108513;28;20028;-87
2022/05/09 07:36:22;;;;;;;12.80;4.72;;;;;;;12.58;72.43;102669.00;5069989;28;20016;-87
2022/05/09 07:38:48;;;;;;;12.43;5.00;;;;;;;12.71;71.96;102672.22;5087298;28;20119;-85
2022/05/09 07:41:13;;;;;;;17.90;5.32;;;;;;;12.78;71.16;102665.81;5066678;28;20032;-88
2022/05/09 07:43:39;;;;;;;10.88;4.80;;;;;;;12.88;70.94;102669.13;5041507;28;20043;-88
2022/05/09 07:46:05;;;;;;;16.77;5.40;;;;;;;12.99;71.63;102668.84;5029579;28;20116;-88
2022/05/09 07:48:30;;;;;;;11.55;4.72;;;;;;;13.14;71.88;102661.41;5090620;28;20078;-88
2022/05/09 07:50:58;;;;;;;14.23;4.97;;;;;;;13.29;71.56;102666.31;5046932;28;20376;-87
2022/05/09 07:53:27;;;;;;;14.00;5.15;;;;;;;13.43;70.00;102665.97;5082592;28;20024;-88
2022/05/09 07:55:53;;;;;;;10.73;4.43;;;;;;;13.56;69.35;102662.03;5055759;28;20034;-90
2022/05/09 07:58:19;;;;;;;17.65;5.45;;;;;;;13.64;68.43;102659.16;5063189;28;20481;-87
2022/05/09 08:00:46;;;;;;;13.65;5.10;;;;;;;13.75;67.71;102656.19;5038722;28;20377;-82
2022/05/09 08:03:17;;;;;;;15.85;4.72;;;;;;;13.79;67.17;102657.84;5066239;28;20069;-81
2022/05/09 08:05:43;;;;;;;;;;;;;;;13.89;66.98;102651.31;5062489;28;20077;-81
2022/05/09 08:08:10;;;;;;;13.15;5.05;;;;;;;14.00;66.98;102655.44;5055658;28;19912;-81
2022/05/09 08:10:36;;;;;;;11.93;4.55;;;;;;;14.14;66.12;102655.03;5056808;28;20024;-82
2022/05/09 08:13:03;;;;;;;12.70;5.22;;;;;;;14.23;64.81;102646.75;5022667;28;20029;-82
2022/05/09 08:15:30;;;;;;;11.85;4.65;;;;;;;14.32;65.39;102653.59;5038004;28;20102;-82
2022/05/09 08:17:56;;;;;;;9.48;4.53;;;;;;;14.45;65.09;102652.28;5018356;28;20028;-82
2022/05/09 08:20:23;;;;;;;14.55;5.32;;;;;;;14.64;66.01;102651.66;5032615;28;20021;-83
2022/05/09 08:22:49;;;;;;;12.77;5.03;;;;;;;14.81;64.66;102651.13;5056790;28;20032;-81
2022/05/09 08:25:15;;;;;;;13.63;4.63;;;;;;;14.90;63.77;102646.38;5024113;28;20395;-81
2022/05/09 08:27:41;;;;;;;15.93;5.38;;;;;;;15.01;62.59;102655.78;5070068;28;20161;-82
2022/05/09 08:30:08;;;;;;;10.73;4.50;;;;;;;15.11;61.56;102645.69;5038270;28;20039;-81
2022/05/09 08:32:36;;;;;;;11.40;4.35;;;;;;;15.21;61.12;102653.28;5020533;28;20040;-81
2022/05/09 08:35:03;;;;;;;15.95;4.03;;;;;;;15.38;61.00;102654.50;5024117;28;20028;-81
2022/05/09 08:37:28;;;;;;;11.70;4.65;;;;;;;15.57;60.22;102642.25;5039188;28;20047;-82
2022/05/09 08:39:54;;;;;;;12.63;4.60;;;;;;;15.84;58.85;102642.16;5027075;28;20480;-83
2022/05/09 08:42:48;;;;;;;9.18;4.00;;;;;;;16.05;60.10;102647.59;5014556;28;20484;-82
2022/05/09 08:45:33;;;;;;;10.65;4.30;;;;;;;16.75;57.71;102642.09;5045696;28;20086;-82
2022/05/09 08:48:05;;;;;;;12.38;4.95;;;;;;;18.38;54.61;102641.91;5051888;28;20115;-83
2022/05/09 08:50:52;;;;;;;10.75;4.82;;;;;;;20.23;44.68;102630.41;5072277;28;20043;-88
2022/05/09 08:53:24;;;;;;;14.35;4.65;;;;;;;21.70;39.22;102627.91;5059896;28;20086;-86
2022/05/09 08:55:56;;;;;;;10.88;4.60;;;;;;;22.54;36.03;102639.53;5069641;28;20027;-82
2022/05/09 08:58:27;;;;;;;11.00;4.47;;;;;;;23.27;34.86;102636.44;5070579;28;20070;-85
2022/05/09 09:00:53;;;;;;;9.68;4.03;;;;;;;23.95;33.50;102635.16;5052499;28;20024;-82
2022/05/09 09:03:31;;;;;;;10.10;3.92;;;;;;;23.98;31.35;102637.63;5038244;28;20032;-81
2022/05/09 09:06:09;;;;;;;16.73;4.22;;;;;;;24.26;32.59;102621.16;5074563;28;20024;-81
2022/05/09 09:09:02;;;;;;;14.25;4.72;;;;;;;24.91;32.02;102627.09;5055895;28;20119;-83
2022/05/09 09:11:44;;;;;;;13.65;4.50;;;;;;;24.65;33.49;102622.72;5052522;28;20033;-82
2022/05/09 09:14:35;;;;;;;9.30;3.90;;;;;;;24.60;31.20;102618.63;5068547;28;20032;-83
2022/05/09 09:17:16;;;;;;;11.35;3.90;;;;;;;24.96;31.62;102616.78;5061413;28;20042;-83
2022/05/09 09:19:50;;;;;;;14.13;4.28;;;;;;;25.61;30.80;102614.38;5056293;28;20062;-82
2022/05/09 09:22:33;;;;;;;7.65;3.47;;;;;;;25.80;28.77;102609.16;5038124;28;20028;-84
2022/05/09 09:25:14;;;;;;;8.77;3.72;;;;;;;26.04;28.23;102610.84;5039918;28;20079;-83
2022/05/09 09:27:54;;;;;;;11.02;3.67;;;;;;;26.31;27.85;102601.41;5073889;28;20088;-81
2022/05/09 09:30:22;;;;;;;6.78;3.20;;;;;;;26.74;26.30;102595.03;5061002;28;20017;-81
2022/05/09 09:32:56;;;;;;;8.65;3.22;;;;;;;26.65;26.93;102604.81;5094975;28;20430;-82
2022/05/09 09:36:02;;;;;;;9.48;3.00;;;;;;;26.45;28.04;102598.38;5041732;28;20033;-82
2022/05/09 09:38:40;;;;;;;5.18;2.47;;;;;;;26.39;25.00;102590.72;5043690;28;20021;-83
2022/05/09 09:41:30;;;;;;;9.45;2.75;;;;;;;26.59;23.91;102590.91;5059168;28;20028;-83
2022/05/09 09:44:13;;;;;;;6.72;2.85;;;;;;;26.74;25.20;102594.16;5045087;28;20083;-82
2022/05/09 09:46:57;;;;;;;7.88;2.40;;;;;;;26.91;27.34;102596.28;5041695;28;20057;-83
2022/05/09 09:49:24;;;;;;;9.38;2.25;;;;;;;26.63;26.23;102590.50;5044297;28;20045;-83
2022/05/09 09:51:50;;;;;;;5.03;2.30;;;;;;;26.79;21.81;102581.03;5034462;28;20051;-81
2022/05/09 09:54:26;;;;;;;6.93;1.95;;;;;;;26.16;22.88;102580.00;5061736;28;20060;-82
2022/05/09 09:56:55;;;;;;;7.70;1.80;;;;;;;26.57;22.83;102577.44;5056448;28;20234;-81
2022/05/09 09:59:29;;;;;;;5.93;2.28;;;;;;;26.95;23.12;102581.41;5038442;28;20032;-82
2022/05/09 10:02:22;;;;;;;5.93;2.10;;;;;;;26.93;22.30;102586.16;5074216;28;20107;-82
2022/05/09 10:04:48;;;;;;;7.95;2.20;;;;;;;26.75;24.78;102588.63;5062807;28;20025;-83
2022/05/09 10:07:33;;;;;;;7.43;2.38;;;;;;;26.98;24.11;102577.56;5006201;28;20033;-82
2022/05/09 10:10:20;;;;;;;5.72;2.33;;;;;;;27.25;22.58;102566.13;5048956;28;20121;-82
2022/05/09 10:12:49;;;;;;;6.55;2.33;;;;;;;27.67;22.91;102565.13;5051288;28;20063;-84
2022/05/09 10:15:35;;;;;;;7.50;2.45;;;;;;;27.51;22.06;102568.38;5072377;28;20217;-82
2022/05/09 10:18:22;;;;;;;5.47;2.20;;;;;;;27.23;22.31;102554.50;5067224;28;20036;-84
2022/05/09 10:20:52;;;;;;;4.68;2.05;;;;;;;27.43;22.97;102551.88;5043824;28;20024;-83
2022/05/09 10:26:13;;;;;;;7.30;2.00;;;;;;;27.60;23.01;102555.81;5089066;28;20445;-83
2022/05/09 10:28:46;;;;;;;6.85;2.50;;;;;;;27.56;22.95;102557.06;5044527;28;20044;-83
2022/05/09 10:31:44;;;;;;;7.45;2.33;;;;;;;27.35;22.60;102547.09;5067568;28;20024;-82
2022/05/09 10:34:46;;;;;;;7.88;3.22;;;;;;;27.41;23.74;102549.31;5063542;28;20169;-82
2022/05/09 10:37:40;;;;;;;8.13;3.17;;;;;;;27.31;25.52;102554.66;5055138;28;20044;-82
2022/05/09 10:40:14;;;;;;;8.35;2.90;;;;;;;27.58;25.15;102546.91;5057569;28;20029;-83
2022/05/09 10:42:44;;;;;;;6.53;2.90;;;;;;;28.07;23.75;102533.38;5060119;28;20024;-84
2022/05/09 10:45:17;;;;;;;14.10;3.03;;;;;;;28.31;23.31;102532.94;5052707;28;20021;-83
2022/05/09 10:47:45;;;;;;;6.72;3.08;;;;;;;27.61;24.82;102542.06;5043627;28;20028;-84
2022/05/09 10:50:16;;;;;;;8.48;2.90;;;;;;;27.40;23.66;102533.97;5071553;28;20040;-84
2022/05/09 10:53:06;;;;;;;6.25;2.60;;;;;;;28.12;22.60;102531.09;5085836;28;20115;-84
2022/05/09 10:55:38;;;;;;;7.72;3.47;;;;;;;28.07;22.83;102534.25;5052884;28;20542;-83
2022/05/09 10:58:24;;;;;;;8.80;3.63;;;;;;;27.60;22.80;102540.31;5052982;28;20025;-83
2022/05/09 11:00:56;;;;;;;8.82;3.28;;;;;;;27.39;23.94;102540.44;5052981;28;20391;-83
2022/05/09 11:03:34;;;;;;;6.60;3.15;;;;;;;27.43;23.68;102535.56;5055044;28;20028;-83
2022/05/09 11:06:15;;;;;;;8.80;3.50;;;;;;;27.47;24.25;102537.03;5042494;28;20130;-83
2022/05/09 11:09:30;;;;;;;7.30;3.10;;;;;;;27.72;23.33;102529.31;5048049;28;20376;-83
2022/05/09 11:12:02;;;;;;;8.27;3.28;;;;;;;26.93;24.74;102525.47;5053795;28;20041;-84
2022/05/09 11:14:52;;;;;;;7.63;2.95;;;;;;;26.96;24.40;102522.50;5077085;28;20154;-83
2022/05/09 11:17:30;;;;;;;6.78;2.80;;;;;;;26.67;25.21;102525.88;5058441;28;20396;-83
2022/05/09 11:20:08;;;;;;;7.50;3.30;;;;;;;27.38;23.61;102511.47;5047912;28;20045;-83
2022/05/09 11:22:51;;;;;;;6.95;3.13;;;;;;;27.38;24.74;102513.31;5046483;28;20028;-83
2022/05/09 11:25:46;;;;;;;13.05;3.17;;;;;;;27.07;24.37;102510.66;5038864;28;20020;-83
2022/05/09 11:28:44;;;;;;;10.07;3.35;;;;;;;26.79;25.92;102513.09;5072620;28;20046;-84
2022/05/09 11:31:20;;;;;;;11.00;3.70;;;;;;;27.41;23.22;102513.09;5024962;28;20052;-84
2022/05/09 11:33:58;;;;;;;8.93;3.55;;;;;;;26.76;26.09;102510.66;5039525;28;20024;-84
2022/05/09 11:36:41;;;;;;;10.55;3.28;;;;;;;26.61;25.12;102504.66;5055390;28;20029;-83
2022/05/09 11:39:13;;;;;;;6.63;3.20;;;;;;;27.38;25.78;102497.88;5056564;28;20071;-83
2022/05/09 11:41:46;;;;;;;11.55;3.67;;;;;;;27.73;24.25;102499.25;5057433;28;20119;-83
2022/05/09 11:44:23;;;;;;;9.60;3.38;;;;;;;27.90;23.08;102488.66;5054612;28;20468;-83
2022/05/09 11:47:07;;;;;;;8.18;3.47;;;;;;;28.31;23.56;102492.06;5072121;28;20024;-83
2022/05/09 11:49:44;;;;;;;8.02;3.67;;;;;;;28.90;23.79;102490.06;5067741;28;20408;-83